sensor_id;sensor_type;location;lat;lon;timestamp;temperature;humidity
69944;DHT22;57257;48.408;-4.498;2023-09-19T00:00:42;17.80;71.21
69944;DHT22;57257;48.408;-4.498;2023-09-19T00:03:09;17.80;71.04
69944;DHT22;57257;48.408;-4.498;2023-09-19T00:05:36;17.80;71.07
69944;DHT22;57257;48.408;-4.498;2023-09-19T00:08:04;17.77;71.03
69944;DHT22;57257;48.408;-4.498;2023-09-19T00:10:30;17.78;71.17
69944;DHT22;57257;48.408;-4.498;2023-09-19T00:13:00;17.80;71.27
69944;DHT22;57257;48.408;-4.498;2023-09-19T00:15:35;17.80;71.36
69944;DHT22;57257;48.408;-4.498;2023-09-19T00:18:01;17.83;71.22
69944;DHT22;57257;48.408;-4.498;2023-09-19T00:20:26;17.81;71.33
69944;DHT22;57257;48.408;-4.498;2023-09-19T00:22:52;17.84;71.45
69944;DHT22;57257;48.408;-4.498;2023-09-19T00:25:19;17.86;71.53
69944;DHT22;57257;48.408;-4.498;2023-09-19T00:27:45;17.86;71.68
69944;DHT22;57257;48.408;-4.498;2023-09-19T00:30:13;17.87;71.71
69944;DHT22;57257;48.408;-4.498;2023-09-19T00:32:42;17.81;71.94
69944;DHT22;57257;48.408;-4.498;2023-09-19T00:35:08;17.80;71.98
69944;DHT22;57257;48.408;-4.498;2023-09-19T00:37:35;17.70;72.24
69944;DHT22;57257;48.408;-4.498;2023-09-19T00:40:02;17.66;72.23
69944;DHT22;57257;48.408;-4.498;2023-09-19T00:42:28;17.67;72.31
69944;DHT22;57257;48.408;-4.498;2023-09-19T00:44:53;17.67;72.14
69944;DHT22;57257;48.408;-4.498;2023-09-19T00:47:19;17.64;72.14
69944;DHT22;57257;48.408;-4.498;2023-09-19T00:49:45;17.64;71.93
69944;DHT22;57257;48.408;-4.498;2023-09-19T00:52:16;17.64;71.90
69944;DHT22;57257;48.408;-4.498;2023-09-19T00:54:46;17.62;71.59
69944;DHT22;57257;48.408;-4.498;2023-09-19T00:57:12;17.57;71.57
69944;DHT22;57257;48.408;-4.498;2023-09-19T00:59:38;17.54;71.69
69944;DHT22;57257;48.408;-4.498;2023-09-19T01:02:03;17.54;71.86
69944;DHT22;57257;48.408;-4.498;2023-09-19T01:04:29;17.59;71.65
69944;DHT22;57257;48.408;-4.498;2023-09-19T01:06:56;17.56;71.76
69944;DHT22;57257;48.408;-4.498;2023-09-19T01:09:23;17.54;71.64
69944;DHT22;57257;48.408;-4.498;2023-09-19T01:11:51;17.53;71.63
69944;DHT22;57257;48.408;-4.498;2023-09-19T01:17:25;17.50;71.81
69944;DHT22;57257;48.408;-4.498;2023-09-19T01:20:11;17.46;71.63
69944;DHT22;57257;48.408;-4.498;2023-09-19T01:31:10;17.46;71.87
69944;DHT22;57257;48.408;-4.498;2023-09-19T01:34:00;17.44;72.17
69944;DHT22;57257;48.408;-4.498;2023-09-19T01:36:33;17.47;72.16
69944;DHT22;57257;48.408;-4.498;2023-09-19T01:39:04;17.51;72.21
69944;DHT22;57257;48.408;-4.498;2023-09-19T01:44:24;17.57;72.47
69944;DHT22;57257;48.408;-4.498;2023-09-19T01:46:52;17.62;72.33
69944;DHT22;57257;48.408;-4.498;2023-09-19T01:49:30;17.66;72.67
69944;DHT22;57257;48.408;-4.498;2023-09-19T01:52:25;17.71;72.72
69944;DHT22;57257;48.408;-4.498;2023-09-19T01:54:56;17.69;72.59
69944;DHT22;57257;48.408;-4.498;2023-09-19T01:58:06;17.70;72.65
69944;DHT22;57257;48.408;-4.498;2023-09-19T02:00:37;17.67;72.79
69944;DHT22;57257;48.408;-4.498;2023-09-19T02:03:04;17.69;72.94
69944;DHT22;57257;48.408;-4.498;2023-09-19T02:05:30;17.67;73.14
69944;DHT22;57257;48.408;-4.498;2023-09-19T02:07:56;17.67;73.69
69944;DHT22;57257;48.408;-4.498;2023-09-19T02:10:22;17.67;73.97
69944;DHT22;57257;48.408;-4.498;2023-09-19T02:12:48;17.64;73.97
69944;DHT22;57257;48.408;-4.498;2023-09-19T02:15:15;17.63;74.04
69944;DHT22;57257;48.408;-4.498;2023-09-19T02:17:42;17.63;74.01
69944;DHT22;57257;48.408;-4.498;2023-09-19T02:20:08;17.62;73.89
69944;DHT22;57257;48.408;-4.498;2023-09-19T02:22:43;17.63;73.80
69944;DHT22;57257;48.408;-4.498;2023-09-19T02:25:09;17.59;73.45
69944;DHT22;57257;48.408;-4.498;2023-09-19T02:27:35;17.57;73.60
69944;DHT22;57257;48.408;-4.498;2023-09-19T02:30:01;17.60;73.37
69944;DHT22;57257;48.408;-4.498;2023-09-19T02:32:30;17.62;73.42
69944;DHT22;57257;48.408;-4.498;2023-09-19T02:34:57;17.62;73.06
69944;DHT22;57257;48.408;-4.498;2023-09-19T02:37:23;17.57;73.13
69944;DHT22;57257;48.408;-4.498;2023-09-19T02:39:48;17.60;73.14
69944;DHT22;57257;48.408;-4.498;2023-09-19T02:42:14;17.62;72.65
69944;DHT22;57257;48.408;-4.498;2023-09-19T02:44:40;17.64;72.22
69944;DHT22;57257;48.408;-4.498;2023-09-19T02:47:05;17.59;72.27
69944;DHT22;57257;48.408;-4.498;2023-09-19T02:49:30;17.62;72.04
69944;DHT22;57257;48.408;-4.498;2023-09-19T02:51:56;17.59;71.99
69944;DHT22;57257;48.408;-4.498;2023-09-19T02:54:23;17.64;71.96
69944;DHT22;57257;48.408;-4.498;2023-09-19T02:56:49;17.59;71.99
69944;DHT22;57257;48.408;-4.498;2023-09-19T02:59:14;17.62;71.98
69944;DHT22;57257;48.408;-4.498;2023-09-19T03:01:43;17.64;72.05
69944;DHT22;57257;48.408;-4.498;2023-09-19T03:04:08;17.64;72.20
69944;DHT22;57257;48.408;-4.498;2023-09-19T03:06:36;17.66;72.42
69944;DHT22;57257;48.408;-4.498;2023-09-19T03:09:03;17.69;72.27
69944;DHT22;57257;48.408;-4.498;2023-09-19T03:11:31;17.69;72.36
69944;DHT22;57257;48.408;-4.498;2023-09-19T03:13:56;17.73;72.46
69944;DHT22;57257;48.408;-4.498;2023-09-19T03:16:22;17.76;72.41
69944;DHT22;57257;48.408;-4.498;2023-09-19T03:18:48;17.73;72.55
69944;DHT22;57257;48.408;-4.498;2023-09-19T03:21:16;17.71;72.75
69944;DHT22;57257;48.408;-4.498;2023-09-19T03:23:45;17.74;72.76
69944;DHT22;57257;48.408;-4.498;2023-09-19T03:26:11;17.71;72.98
69944;DHT22;57257;48.408;-4.498;2023-09-19T03:28:38;17.71;73.18
69944;DHT22;57257;48.408;-4.498;2023-09-19T03:31:05;17.69;73.24
69944;DHT22;57257;48.408;-4.498;2023-09-19T03:33:31;17.71;73.15
69944;DHT22;57257;48.408;-4.498;2023-09-19T03:35:58;17.74;73.34
69944;DHT22;57257;48.408;-4.498;2023-09-19T03:38:27;17.73;73.54
69944;DHT22;57257;48.408;-4.498;2023-09-19T03:40:54;17.73;73.67
69944;DHT22;57257;48.408;-4.498;2023-09-19T03:43:19;17.74;73.85
69944;DHT22;57257;48.408;-4.498;2023-09-19T03:45:45;17.73;73.93
69944;DHT22;57257;48.408;-4.498;2023-09-19T03:48:12;17.77;73.92
69944;DHT22;57257;48.408;-4.498;2023-09-19T03:50:38;17.78;74.02
69944;DHT22;57257;48.408;-4.498;2023-09-19T03:53:04;17.80;74.32
69944;DHT22;57257;48.408;-4.498;2023-09-19T03:55:29;17.83;74.19
69944;DHT22;57257;48.408;-4.498;2023-09-19T03:57:57;17.84;74.21
69944;DHT22;57257;48.408;-4.498;2023-09-19T04:00:23;17.83;74.59
69944;DHT22;57257;48.408;-4.498;2023-09-19T04:02:52;17.78;74.64
69944;DHT22;57257;48.408;-4.498;2023-09-19T04:05:17;17.77;74.91
69944;DHT22;57257;48.408;-4.498;2023-09-19T04:07:43;17.83;74.91
69944;DHT22;57257;48.408;-4.498;2023-09-19T04:10:09;17.80;74.91
69944;DHT22;57257;48.408;-4.498;2023-09-19T04:12:37;17.74;75.00
69944;DHT22;57257;48.408;-4.498;2023-09-19T04:15:04;17.77;75.07
69944;DHT22;57257;48.408;-4.498;2023-09-19T04:17:30;17.73;75.37
69944;DHT22;57257;48.408;-4.498;2023-09-19T04:19:58;17.76;75.24
69944;DHT22;57257;48.408;-4.498;2023-09-19T04:22:23;17.76;75.15
69944;DHT22;57257;48.408;-4.498;2023-09-19T04:24:49;17.74;75.18
69944;DHT22;57257;48.408;-4.498;2023-09-19T04:27:14;17.70;75.39
69944;DHT22;57257;48.408;-4.498;2023-09-19T04:29:40;17.74;75.19
69944;DHT22;57257;48.408;-4.498;2023-09-19T04:32:07;17.69;75.36
69944;DHT22;57257;48.408;-4.498;2023-09-19T04:34:33;17.69;75.28
69944;DHT22;57257;48.408;-4.498;2023-09-19T04:36:59;17.66;75.29
69944;DHT22;57257;48.408;-4.498;2023-09-19T04:39:26;17.66;75.37
69944;DHT22;57257;48.408;-4.498;2023-09-19T04:41:52;17.69;75.41
69944;DHT22;57257;48.408;-4.498;2023-09-19T04:44:18;17.73;75.27
69944;DHT22;57257;48.408;-4.498;2023-09-19T04:46:44;17.71;75.15
69944;DHT22;57257;48.408;-4.498;2023-09-19T04:49:11;17.74;75.08
69944;DHT22;57257;48.408;-4.498;2023-09-19T04:51:37;17.71;75.00
69944;DHT22;57257;48.408;-4.498;2023-09-19T04:54:03;17.77;74.71
69944;DHT22;57257;48.408;-4.498;2023-09-19T04:56:28;17.71;74.70
69944;DHT22;57257;48.408;-4.498;2023-09-19T04:58:54;17.73;74.64
69944;DHT22;57257;48.408;-4.498;2023-09-19T05:01:20;17.71;74.54
69944;DHT22;57257;48.408;-4.498;2023-09-19T05:03:47;17.69;74.25
69944;DHT22;57257;48.408;-4.498;2023-09-19T05:06:17;17.70;74.21
69944;DHT22;57257;48.408;-4.498;2023-09-19T05:08:43;17.73;74.26
69944;DHT22;57257;48.408;-4.498;2023-09-19T05:11:08;17.77;73.99
69944;DHT22;57257;48.408;-4.498;2023-09-19T05:13:34;17.78;73.97
69944;DHT22;57257;48.408;-4.498;2023-09-19T05:16:00;17.78;73.86
69944;DHT22;57257;48.408;-4.498;2023-09-19T05:18:28;17.77;73.77
69944;DHT22;57257;48.408;-4.498;2023-09-19T05:20:54;17.78;73.72
69944;DHT22;57257;48.408;-4.498;2023-09-19T05:23:20;17.81;73.63
69944;DHT22;57257;48.408;-4.498;2023-09-19T05:25:46;17.83;73.65
69944;DHT22;57257;48.408;-4.498;2023-09-19T05:28:11;17.81;73.76
69944;DHT22;57257;48.408;-4.498;2023-09-19T05:30:40;17.84;73.72
69944;DHT22;57257;48.408;-4.498;2023-09-19T05:33:06;17.87;73.66
69944;DHT22;57257;48.408;-4.498;2023-09-19T05:35:33;17.88;73.50
69944;DHT22;57257;48.408;-4.498;2023-09-19T05:37:58;17.87;73.41
69944;DHT22;57257;48.408;-4.498;2023-09-19T05:40:25;17.88;73.28
69944;DHT22;57257;48.408;-4.498;2023-09-19T05:42:50;17.88;73.15
69944;DHT22;57257;48.408;-4.498;2023-09-19T05:45:17;17.83;73.24
69944;DHT22;57257;48.408;-4.498;2023-09-19T05:47:48;17.84;73.17
69944;DHT22;57257;48.408;-4.498;2023-09-19T05:50:14;17.81;73.07
69944;DHT22;57257;48.408;-4.498;2023-09-19T05:52:42;17.78;73.19
69944;DHT22;57257;48.408;-4.498;2023-09-19T05:55:09;17.78;73.07
69944;DHT22;57257;48.408;-4.498;2023-09-19T05:57:36;17.77;72.93
69944;DHT22;57257;48.408;-4.498;2023-09-19T06:00:05;17.76;72.74
69944;DHT22;57257;48.408;-4.498;2023-09-19T06:02:36;17.77;72.55
69944;DHT22;57257;48.408;-4.498;2023-09-19T06:05:01;17.73;72.52
69944;DHT22;57257;48.408;-4.498;2023-09-19T06:07:26;17.73;72.58
69944;DHT22;57257;48.408;-4.498;2023-09-19T06:10:01;17.73;72.36
69944;DHT22;57257;48.408;-4.498;2023-09-19T06:12:26;17.76;72.29
69944;DHT22;57257;48.408;-4.498;2023-09-19T06:14:52;17.71;72.28
69944;DHT22;57257;48.408;-4.498;2023-09-19T06:17:18;17.73;72.21
69944;DHT22;57257;48.408;-4.498;2023-09-19T06:19:45;17.70;72.38
69944;DHT22;57257;48.408;-4.498;2023-09-19T06:22:15;17.67;72.48
69944;DHT22;57257;48.408;-4.498;2023-09-19T06:24:43;17.67;72.64
69944;DHT22;57257;48.408;-4.498;2023-09-19T06:27:08;17.64;72.62
69944;DHT22;57257;48.408;-4.498;2023-09-19T06:29:34;17.67;72.70
69944;DHT22;57257;48.408;-4.498;2023-09-19T06:32:00;17.69;72.64
69944;DHT22;57257;48.408;-4.498;2023-09-19T06:34:26;17.71;72.49
69944;DHT22;57257;48.408;-4.498;2023-09-19T06:36:52;17.67;72.50
69944;DHT22;57257;48.408;-4.498;2023-09-19T06:39:18;17.73;72.51
69944;DHT22;57257;48.408;-4.498;2023-09-19T06:41:43;17.76;72.30
69944;DHT22;57257;48.408;-4.498;2023-09-19T06:44:11;17.81;72.22
69944;DHT22;57257;48.408;-4.498;2023-09-19T06:46:36;17.87;72.08
69944;DHT22;57257;48.408;-4.498;2023-09-19T06:49:04;17.88;71.94
69944;DHT22;57257;48.408;-4.498;2023-09-19T06:51:32;17.88;71.92
69944;DHT22;57257;48.408;-4.498;2023-09-19T06:54:00;17.91;71.84
69944;DHT22;57257;48.408;-4.498;2023-09-19T06:56:25;17.94;71.73
69944;DHT22;57257;48.408;-4.498;2023-09-19T06:58:51;17.98;71.82
69944;DHT22;57257;48.408;-4.498;2023-09-19T07:01:16;18.02;71.67
69944;DHT22;57257;48.408;-4.498;2023-09-19T07:03:43;18.05;71.59
69944;DHT22;57257;48.408;-4.498;2023-09-19T07:06:10;18.09;71.49
69944;DHT22;57257;48.408;-4.498;2023-09-19T07:08:36;18.18;71.67
69944;DHT22;57257;48.408;-4.498;2023-09-19T07:11:01;18.35;71.48
69944;DHT22;57257;48.408;-4.498;2023-09-19T07:13:27;18.47;71.06
69944;DHT22;57257;48.408;-4.498;2023-09-19T07:15:53;18.55;70.86
69944;DHT22;57257;48.408;-4.498;2023-09-19T07:18:19;18.68;70.70
69944;DHT22;57257;48.408;-4.498;2023-09-19T07:20:45;18.71;70.45
69944;DHT22;57257;48.408;-4.498;2023-09-19T07:23:16;18.72;70.17
69944;DHT22;57257;48.408;-4.498;2023-09-19T07:25:41;18.68;70.05
69944;DHT22;57257;48.408;-4.498;2023-09-19T07:28:07;18.52;70.19
69944;DHT22;57257;48.408;-4.498;2023-09-19T07:30:36;18.48;70.42
69944;DHT22;57257;48.408;-4.498;2023-09-19T07:33:03;18.47;70.81
69944;DHT22;57257;48.408;-4.498;2023-09-19T07:35:30;18.76;70.83
69944;DHT22;57257;48.408;-4.498;2023-09-19T07:37:56;19.02;70.49
69944;DHT22;57257;48.408;-4.498;2023-09-19T07:40:23;19.34;69.67
69944;DHT22;57257;48.408;-4.498;2023-09-19T07:42:52;19.61;68.26
69944;DHT22;57257;48.408;-4.498;2023-09-19T07:45:17;19.80;67.35
69944;DHT22;57257;48.408;-4.498;2023-09-19T07:47:47;19.88;66.94
69944;DHT22;57257;48.408;-4.498;2023-09-19T07:50:13;20.07;66.88
69944;DHT22;57257;48.408;-4.498;2023-09-19T07:52:39;20.32;66.75
69944;DHT22;57257;48.408;-4.498;2023-09-19T07:55:06;20.55;65.75
69944;DHT22;57257;48.408;-4.498;2023-09-19T07:57:35;20.61;65.83
69944;DHT22;57257;48.408;-4.498;2023-09-19T08:00:02;20.65;65.92
69944;DHT22;57257;48.408;-4.498;2023-09-19T08:02:42;20.69;66.30
69944;DHT22;57257;48.408;-4.498;2023-09-19T08:05:09;20.77;66.18
69944;DHT22;57257;48.408;-4.498;2023-09-19T08:07:41;20.76;66.11
69944;DHT22;57257;48.408;-4.498;2023-09-19T08:10:08;20.80;65.84
69944;DHT22;57257;48.408;-4.498;2023-09-19T08:12:37;20.80;65.69
69944;DHT22;57257;48.408;-4.498;2023-09-19T08:15:03;20.75;65.79
69944;DHT22;57257;48.408;-4.498;2023-09-19T08:17:28;20.77;65.76
69944;DHT22;57257;48.408;-4.498;2023-09-19T08:19:54;20.79;65.65
69944;DHT22;57257;48.408;-4.498;2023-09-19T08:22:20;20.79;65.22
69944;DHT22;57257;48.408;-4.498;2023-09-19T08:24:47;20.75;65.44
69944;DHT22;57257;48.408;-4.498;2023-09-19T08:27:13;20.75;65.39
69944;DHT22;57257;48.408;-4.498;2023-09-19T08:29:40;20.73;65.14
69944;DHT22;57257;48.408;-4.498;2023-09-19T08:32:05;20.72;64.83
69944;DHT22;57257;48.408;-4.498;2023-09-19T08:34:31;20.73;64.97
69944;DHT22;57257;48.408;-4.498;2023-09-19T08:36:59;20.71;65.13
69944;DHT22;57257;48.408;-4.498;2023-09-19T08:39:25;20.71;65.08
69944;DHT22;57257;48.408;-4.498;2023-09-19T08:41:58;20.68;64.98
69944;DHT22;57257;48.408;-4.498;2023-09-19T08:44:24;20.63;64.88
69944;DHT22;57257;48.408;-4.498;2023-09-19T08:46:54;20.52;65.34
69944;DHT22;57257;48.408;-4.498;2023-09-19T08:49:27;20.48;65.49
69944;DHT22;57257;48.408;-4.498;2023-09-19T08:52:10;20.42;65.75
69944;DHT22;57257;48.408;-4.498;2023-09-19T08:54:41;20.32;65.92
69944;DHT22;57257;48.408;-4.498;2023-09-19T08:57:08;20.26;66.17
69944;DHT22;57257;48.408;-4.498;2023-09-19T08:59:37;20.25;66.35
69944;DHT22;57257;48.408;-4.498;2023-09-19T09:02:10;20.22;66.56
69944;DHT22;57257;48.408;-4.498;2023-09-19T09:04:39;20.24;66.36
69944;DHT22;57257;48.408;-4.498;2023-09-19T09:07:10;20.17;66.48
69944;DHT22;57257;48.408;-4.498;2023-09-19T09:09:35;20.07;66.51
69944;DHT22;57257;48.408;-4.498;2023-09-19T09:12:02;19.92;66.62
69944;DHT22;57257;48.408;-4.498;2023-09-19T09:14:28;19.81;67.10
69944;DHT22;57257;48.408;-4.498;2023-09-19T09:16:55;19.74;67.34
69944;DHT22;57257;48.408;-4.498;2023-09-19T09:19:24;19.67;67.53
69944;DHT22;57257;48.408;-4.498;2023-09-19T09:21:51;19.67;67.60
69944;DHT22;57257;48.408;-4.498;2023-09-19T09:24:29;19.64;67.82
69944;DHT22;57257;48.408;-4.498;2023-09-19T09:26:58;19.64;67.87
69944;DHT22;57257;48.408;-4.498;2023-09-19T09:29:49;19.67;67.88
69944;DHT22;57257;48.408;-4.498;2023-09-19T09:32:19;19.61;68.21
69944;DHT22;57257;48.408;-4.498;2023-09-19T09:34:47;19.67;68.33
69944;DHT22;57257;48.408;-4.498;2023-09-19T09:37:18;19.74;68.20
69944;DHT22;57257;48.408;-4.498;2023-09-19T09:40:00;19.85;68.19
69944;DHT22;57257;48.408;-4.498;2023-09-19T09:42:45;19.88;67.93
69944;DHT22;57257;48.408;-4.498;2023-09-19T09:45:19;19.91;68.01
69944;DHT22;57257;48.408;-4.498;2023-09-19T09:47:54;19.97;67.92
69944;DHT22;57257;48.408;-4.498;2023-09-19T09:50:34;20.01;67.99
69944;DHT22;57257;48.408;-4.498;2023-09-19T09:53:26;20.07;68.09
69944;DHT22;57257;48.408;-4.498;2023-09-19T09:56:08;20.18;68.10
69944;DHT22;57257;48.408;-4.498;2023-09-19T10:01:14;20.25;67.30
69944;DHT22;57257;48.408;-4.498;2023-09-19T10:03:42;20.22;67.66
69944;DHT22;57257;48.408;-4.498;2023-09-19T10:06:15;20.28;67.58
69944;DHT22;57257;48.408;-4.498;2023-09-19T10:09:06;20.29;67.49
69944;DHT22;57257;48.408;-4.498;2023-09-19T10:11:35;20.25;67.23
69944;DHT22;57257;48.408;-4.498;2023-09-19T10:14:03;20.24;67.50
69944;DHT22;57257;48.408;-4.498;2023-09-19T10:16:32;20.24;67.74
69944;DHT22;57257;48.408;-4.498;2023-09-19T10:19:02;20.28;67.58
69944;DHT22;57257;48.408;-4.498;2023-09-19T10:21:28;20.28;67.81
69944;DHT22;57257;48.408;-4.498;2023-09-19T10:23:58;20.31;67.54
69944;DHT22;57257;48.408;-4.498;2023-09-19T10:26:27;20.29;67.61
69944;DHT22;57257;48.408;-4.498;2023-09-19T10:28:56;20.33;67.69
69944;DHT22;57257;48.408;-4.498;2023-09-19T10:31:23;20.36;67.36
69944;DHT22;57257;48.408;-4.498;2023-09-19T10:33:51;20.33;67.27
69944;DHT22;57257;48.408;-4.498;2023-09-19T10:36:19;20.35;67.22
69944;DHT22;57257;48.408;-4.498;2023-09-19T10:38:47;20.39;67.44
69944;DHT22;57257;48.408;-4.498;2023-09-19T10:41:14;20.45;67.02
69944;DHT22;57257;48.408;-4.498;2023-09-19T10:43:43;20.52;66.73
69944;DHT22;57257;48.408;-4.498;2023-09-19T10:46:11;20.56;66.30
69944;DHT22;57257;48.408;-4.498;2023-09-19T10:48:39;20.61;66.16
69944;DHT22;57257;48.408;-4.498;2023-09-19T10:53:48;20.68;66.25
69944;DHT22;57257;48.408;-4.498;2023-09-19T10:56:21;20.73;66.18
69944;DHT22;57257;48.408;-4.498;2023-09-19T10:58:49;20.79;65.59
69944;DHT22;57257;48.408;-4.498;2023-09-19T11:01:15;20.76;65.74
69944;DHT22;57257;48.408;-4.498;2023-09-19T11:03:43;20.68;65.75
69944;DHT22;57257;48.408;-4.498;2023-09-19T11:06:14;20.66;65.79
69944;DHT22;57257;48.408;-4.498;2023-09-19T11:11:49;20.63;66.04
69944;DHT22;57257;48.408;-4.498;2023-09-19T11:30:51;20.83;66.13
69944;DHT22;57257;48.408;-4.498;2023-09-19T11:36:15;20.93;65.55
69944;DHT22;57257;48.408;-4.498;2023-09-19T11:46:30;21.07;65.00
69944;DHT22;57257;48.408;-4.498;2023-09-19T11:49:05;21.08;65.08
69944;DHT22;57257;48.408;-4.498;2023-09-19T11:51:44;21.06;65.08
69944;DHT22;57257;48.408;-4.498;2023-09-19T11:54:12;21.08;65.34
69944;DHT22;57257;48.408;-4.498;2023-09-19T11:56:45;21.20;65.20
69944;DHT22;57257;48.408;-4.498;2023-09-19T11:59:11;21.34;65.05
69944;DHT22;57257;48.408;-4.498;2023-09-19T12:01:38;21.41;64.63
69944;DHT22;57257;48.408;-4.498;2023-09-19T12:04:11;21.46;64.48
69944;DHT22;57257;48.408;-4.498;2023-09-19T12:06:37;21.46;64.37
69944;DHT22;57257;48.408;-4.498;2023-09-19T12:09:12;21.44;64.04
69944;DHT22;57257;48.408;-4.498;2023-09-19T12:11:42;21.38;64.09
69944;DHT22;57257;48.408;-4.498;2023-09-19T12:14:12;21.33;64.55
69944;DHT22;57257;48.408;-4.498;2023-09-19T12:16:53;21.28;64.68
69944;DHT22;57257;48.408;-4.498;2023-09-19T12:19:21;21.22;64.52
69944;DHT22;57257;48.408;-4.498;2023-09-19T12:22:00;21.19;64.92
69944;DHT22;57257;48.408;-4.498;2023-09-19T12:24:34;21.13;65.12
69944;DHT22;57257;48.408;-4.498;2023-09-19T12:27:07;21.04;65.21
69944;DHT22;57257;48.408;-4.498;2023-09-19T12:29:43;21.02;65.66
69944;DHT22;57257;48.408;-4.498;2023-09-19T12:32:09;20.93;65.82
69944;DHT22;57257;48.408;-4.498;2023-09-19T12:34:36;20.90;65.85
69944;DHT22;57257;48.408;-4.498;2023-09-19T12:37:16;20.87;66.29
69944;DHT22;57257;48.408;-4.498;2023-09-19T12:39:51;20.87;66.33
69944;DHT22;57257;48.408;-4.498;2023-09-19T12:42:23;20.87;66.20
69944;DHT22;57257;48.408;-4.498;2023-09-19T12:44:50;20.75;66.58
69944;DHT22;57257;48.408;-4.498;2023-09-19T12:47:20;20.66;67.03
69944;DHT22;57257;48.408;-4.498;2023-09-19T12:50:11;20.66;67.17
69944;DHT22;57257;48.408;-4.498;2023-09-19T12:52:45;20.62;67.26
69944;DHT22;57257;48.408;-4.498;2023-09-19T12:55:25;20.48;67.75
69944;DHT22;57257;48.408;-4.498;2023-09-19T12:57:58;20.41;68.10
69944;DHT22;57257;48.408;-4.498;2023-09-19T13:00:34;20.31;68.44
69944;DHT22;57257;48.408;-4.498;2023-09-19T13:03:14;20.25;68.57
69944;DHT22;57257;48.408;-4.498;2023-09-19T13:05:58;20.22;68.83
69944;DHT22;57257;48.408;-4.498;2023-09-19T13:08:32;20.24;69.02
69944;DHT22;57257;48.408;-4.498;2023-09-19T13:11:11;20.26;68.98
69944;DHT22;57257;48.408;-4.498;2023-09-19T13:13:42;20.14;69.48
69944;DHT22;57257;48.408;-4.498;2023-09-19T13:16:10;20.12;69.77
69944;DHT22;57257;48.408;-4.498;2023-09-19T13:18:47;20.22;69.74
69944;DHT22;57257;48.408;-4.498;2023-09-19T13:21:15;20.31;69.41
69944;DHT22;57257;48.408;-4.498;2023-09-19T13:23:51;20.31;69.19
69944;DHT22;57257;48.408;-4.498;2023-09-19T13:26:17;20.25;69.50
69944;DHT22;57257;48.408;-4.498;2023-09-19T13:28:43;20.33;69.40
69944;DHT22;57257;48.408;-4.498;2023-09-19T13:31:10;20.33;69.34
69944;DHT22;57257;48.408;-4.498;2023-09-19T13:33:43;20.33;69.42
69944;DHT22;57257;48.408;-4.498;2023-09-19T13:36:10;20.33;69.41
69944;DHT22;57257;48.408;-4.498;2023-09-19T13:38:37;20.32;69.58
69944;DHT22;57257;48.408;-4.498;2023-09-19T13:41:02;20.29;69.65
69944;DHT22;57257;48.408;-4.498;2023-09-19T13:43:28;20.33;69.77
69944;DHT22;57257;48.408;-4.498;2023-09-19T13:45:54;20.28;69.85
69944;DHT22;57257;48.408;-4.498;2023-09-19T13:48:20;20.25;70.03
69944;DHT22;57257;48.408;-4.498;2023-09-19T13:50:48;20.24;70.10
69944;DHT22;57257;48.408;-4.498;2023-09-19T13:53:14;20.14;70.37
69944;DHT22;57257;48.408;-4.498;2023-09-19T13:55:39;20.12;70.42
69944;DHT22;57257;48.408;-4.498;2023-09-19T13:58:05;20.14;70.57
69944;DHT22;57257;48.408;-4.498;2023-09-19T14:00:32;20.11;70.42
69944;DHT22;57257;48.408;-4.498;2023-09-19T14:03:02;20.02;70.86
69944;DHT22;57257;48.408;-4.498;2023-09-19T14:05:30;20.07;70.82
69944;DHT22;57257;48.408;-4.498;2023-09-19T14:07:56;20.02;71.16
69944;DHT22;57257;48.408;-4.498;2023-09-19T14:10:22;20.05;71.04
69944;DHT22;57257;48.408;-4.498;2023-09-19T14:12:48;20.01;71.13
69944;DHT22;57257;48.408;-4.498;2023-09-19T14:15:14;19.95;71.42
69944;DHT22;57257;48.408;-4.498;2023-09-19T14:17:40;19.92;71.64
69944;DHT22;57257;48.408;-4.498;2023-09-19T14:20:11;19.94;71.62
69944;DHT22;57257;48.408;-4.498;2023-09-19T14:22:36;19.95;71.83
69944;DHT22;57257;48.408;-4.498;2023-09-19T14:25:03;19.98;71.96
69944;DHT22;57257;48.408;-4.498;2023-09-19T14:27:29;20.09;71.80
69944;DHT22;57257;48.408;-4.498;2023-09-19T14:29:54;20.21;71.17
69944;DHT22;57257;48.408;-4.498;2023-09-19T14:32:22;20.21;70.97
69944;DHT22;57257;48.408;-4.498;2023-09-19T14:34:47;20.19;70.75
69944;DHT22;57257;48.408;-4.498;2023-09-19T14:37:13;20.19;70.69
69944;DHT22;57257;48.408;-4.498;2023-09-19T14:39:40;20.17;70.51
69944;DHT22;57257;48.408;-4.498;2023-09-19T14:42:05;20.14;70.70
69944;DHT22;57257;48.408;-4.498;2023-09-19T14:44:31;20.07;71.06
69944;DHT22;57257;48.408;-4.498;2023-09-19T14:46:56;20.02;71.29
69944;DHT22;57257;48.408;-4.498;2023-09-19T14:49:22;20.02;71.55
69944;DHT22;57257;48.408;-4.498;2023-09-19T14:51:47;20.02;71.60
69944;DHT22;57257;48.408;-4.498;2023-09-19T14:54:13;19.98;71.65
69944;DHT22;57257;48.408;-4.498;2023-09-19T14:56:42;19.94;71.96
69944;DHT22;57257;48.408;-4.498;2023-09-19T14:59:07;19.94;72.21
69944;DHT22;57257;48.408;-4.498;2023-09-19T15:01:33;19.91;72.62
69944;DHT22;57257;48.408;-4.498;2023-09-19T15:03:58;19.91;72.85
69944;DHT22;57257;48.408;-4.498;2023-09-19T15:06:32;19.88;73.16
69944;DHT22;57257;48.408;-4.498;2023-09-19T15:08:57;19.85;73.47
69944;DHT22;57257;48.408;-4.498;2023-09-19T15:11:23;19.81;73.75
69944;DHT22;57257;48.408;-4.498;2023-09-19T15:13:52;19.75;74.03
69944;DHT22;57257;48.408;-4.498;2023-09-19T15:16:19;19.64;74.38
69944;DHT22;57257;48.408;-4.498;2023-09-19T15:18:45;19.58;74.74
69944;DHT22;57257;48.408;-4.498;2023-09-19T15:21:15;19.49;74.93
69944;DHT22;57257;48.408;-4.498;2023-09-19T15:23:42;19.43;75.30
69944;DHT22;57257;48.408;-4.498;2023-09-19T15:26:09;19.40;75.32
69944;DHT22;57257;48.408;-4.498;2023-09-19T15:28:35;19.41;75.38
69944;DHT22;57257;48.408;-4.498;2023-09-19T15:31:08;19.40;75.31
69944;DHT22;57257;48.408;-4.498;2023-09-19T15:33:34;19.37;75.32
69944;DHT22;57257;48.408;-4.498;2023-09-19T15:36:08;19.28;75.47
69944;DHT22;57257;48.408;-4.498;2023-09-19T15:38:56;19.26;75.65
69944;DHT22;57257;48.408;-4.498;2023-09-19T15:41:23;19.24;75.81
69944;DHT22;57257;48.408;-4.498;2023-09-19T15:43:49;19.22;75.72
69944;DHT22;57257;48.408;-4.498;2023-09-19T15:46:15;19.23;75.84
69944;DHT22;57257;48.408;-4.498;2023-09-19T15:48:41;19.22;75.91
69944;DHT22;57257;48.408;-4.498;2023-09-19T15:51:06;19.19;76.09
69944;DHT22;57257;48.408;-4.498;2023-09-19T15:53:48;19.14;76.26
69944;DHT22;57257;48.408;-4.498;2023-09-19T15:56:14;19.14;76.15
69944;DHT22;57257;48.408;-4.498;2023-09-19T15:58:44;19.19;76.06
69944;DHT22;57257;48.408;-4.498;2023-09-19T16:01:09;19.13;76.12
69944;DHT22;57257;48.408;-4.498;2023-09-19T16:03:39;19.12;76.30
69944;DHT22;57257;48.408;-4.498;2023-09-19T16:06:09;19.16;76.48
69944;DHT22;57257;48.408;-4.498;2023-09-19T16:08:42;19.26;76.67
69944;DHT22;57257;48.408;-4.498;2023-09-19T16:11:08;19.36;76.57
69944;DHT22;57257;48.408;-4.498;2023-09-19T16:13:35;19.38;76.44